Indian Springs, Nevada Weather observations

Data are for observation ending at time listed.
 Day   Time    Ave.   Ave.  Ave.  Vector   Max.   Stn.    Total    Solar   Ave.  
  of    of     Air    Rel.  Wind   Wind    Wind   Baro.  Precip.   Rad.    Soil  
Year   Day     Temp.  Hum.  Speed  Dir.    Gust   Pres.                    Temp. 
2016   (PST)    F      %     mph   deg.    mph     mb.     in.     W/m2     F   
------------------------------------------------------------------------------
  43   11:30   61.3    23    1.6   290      3.4   914.3    0.00      83    49.8
  43   11:40   62.7    22    1.0   344      2.5   914.2    0.00      87    49.9
  43   11:50   64.5    20    0.6   310      2.9   914.2    0.00     151    50.0
  43   12:00   65.7    18    1.2   355      2.6   914.7    0.00     453    50.1
  43   12:10   66.5    18    1.0   327      2.4   914.1    0.00     687    50.2
  43   12:20   66.9    17    1.9     3      4.4   914.0    0.00     706    50.5
  43   12:30   66.4    18    1.8    19      3.9   914.3    0.00     744    50.9
  43   12:40   67.0    17    2.0    20      4.3   914.3    0.00     665    51.1
  43   12:50   67.4    17    2.3    27      4.5   914.1    0.00     634    51.5
  43   13:00   68.2    16    2.1    64      4.9   914.2    0.00     656    51.8
  43   13:10   69.0    15    2.6    88      7.2   913.9    0.00     669    52.2
  43   13:20   69.7    15    1.5   109      6.1   913.9    0.00     504    52.6
  43   13:30   70.4    14    1.5   165      3.9   913.6    0.00     451    53.0
  43   13:40   71.3    13    1.6   107      5.8   913.8    0.00     661    53.5
  43   13:50   71.8    13    1.9   119      6.1   913.4    0.00     662    53.9
  43   14:00   72.9    13    1.5   109      4.8   913.4    0.00     624    54.3
  43   14:10   72.6    12    1.4    71      4.9   913.5    0.00     619    54.8
  43   14:20   73.0    12    1.7    79      5.2   913.8    0.00     503    55.2
  43   14:30   72.9    12    1.6    90      6.1   913.8    0.00     473    55.6
  43   14:40   72.2    12    2.9    86      5.8   913.3    0.00     428    56.0
  43   14:50   72.4    12    1.6   119      4.7   913.2    0.00     373    56.4
  43   15:00   72.8    12    1.4    59      4.2   912.8    0.00     375    56.8
  43   15:10   73.3    12    1.5   108      5.0   913.1    0.00     355    57.1
  43   15:20   72.8    12    2.1    65      5.3   912.9    0.00     351    57.4
  43   15:30   72.3    12    2.3    63      4.2   912.8    0.00     300    57.7
  43   15:40   71.8    12    1.7    99      4.2   912.7    0.00     231    57.9
  43   15:50   71.3    12    2.2    86      4.7   912.4    0.00     139    58.1
  43   16:00   71.2    12    1.0   110      4.7   912.4    0.00      83    58.2
  43   16:10   71.5    12    1.6   100      3.7   912.4    0.00      92    58.4
  43   16:20   71.6    12    2.0    95      3.7   912.3    0.00      92    58.5
  43   16:30   70.5    13    1.7    94      2.8   912.2    0.00     102    58.5
  43   16:40   69.9    13    0.2   128      1.1   912.2    0.00      67    58.6
  43   16:50   69.0    14    0.0   156      0.4   912.0    0.00      34    58.5
  43   17:00   67.0    17    0.0   156      0.7   911.9    0.00      23    58.5
  43   17:10   65.1    18    0.0     0      0.0   911.7    0.00      17    58.5
  43   17:20   63.5    19    0.0     0      0.0   911.5    0.00       7    58.4
  43   17:30   62.0    21    0.0   156      0.4   911.3    0.00       3    58.3
  43   17:40   60.5    22    0.0     0      0.0   911.2    0.00       1    58.1
  43   17:50   59.4    24    0.0   157      0.4   911.1    0.00       0    58.0
  43   18:00   58.8    24    0.3    71      2.8   910.8    0.00       0    57.8
  43   18:10   56.8    27    0.8    75      2.0   911.0    0.00       0    57.6
  43   18:20   55.7    28    0.0     0      0.0   911.0    0.00       0    57.5
  43   18:30   55.9    28    0.3   254      1.3   911.2    0.00       0    57.3
  43   18:40   55.9    28    1.7   292      3.1   910.4    0.00       0    57.1
  43   18:50   55.3    28    1.8   280      3.1   910.6    0.00       0    56.9
  43   19:00   55.1    29    1.8   259      3.8   910.7    0.00       0    56.7
  43   19:10   55.4    28    1.9   253      2.9   910.6    0.00       0    56.5
  43   19:20   54.4    29    2.3   245      3.4   910.5    0.00       0    56.3
  43   19:30   53.3    30    2.3   241      3.4   910.5    0.00       0    56.1
  43   19:40   52.3    32    2.5   237      4.0   910.6    0.00       0    55.9
  43   19:50   52.3    32    1.8   239      2.6   910.7    0.00       0    55.8
  43   20:00   52.1    32    1.8   236      3.0   910.5    0.00       0    55.6
  43   20:10   52.0    32    1.2   239      3.1   910.4    0.00       0    55.4
  43   20:20   50.9    34    0.6    31      2.6   910.9    0.00       0    55.2
  43   20:30   49.8    36    0.9   203      2.6   910.8    0.00       0    55.1
  43   20:40   49.3    37    0.2   216      1.2   910.7    0.00       0    54.9
  43   20:50   49.5    36    0.3   241      1.2   910.6    0.00       0    54.7
  43   21:00   48.9    38    0.9   229      2.0   910.6    0.00       0    54.6
  43   21:10   48.3    39    0.8   232      1.5   910.4    0.00       0    54.4
  43   21:20   47.7    40    0.6   226      1.9   910.3    0.00       0    54.2
  43   21:30   47.3    40    1.0   224      2.3   910.3    0.00       0    54.0
  43   21:40   46.9    40    1.0   224      1.8   910.2    0.00       0    53.9
  43   21:50   46.7    41    0.4   235      1.7   910.1    0.00       0    53.7
  43   22:00   45.6    44    0.0   177      0.5   910.0    0.00       0    53.5
  43   22:10   45.5    44    0.2   201      1.2   910.1    0.00       0    53.4
  43   22:20   45.5    43    0.2   190      1.5   910.0    0.00       0    53.2
  43   22:30   45.8    42    0.1   198      1.3   909.7    0.00       0    53.0
  43   22:40   45.4    43    0.9   297      3.2   909.8    0.00       0    52.9
  43   22:50   44.9    44    0.9   222      1.7   909.7    0.00       0    52.7
  43   23:00   44.0    45    0.7   207      1.8   909.8    0.00       0    52.6
  43   23:10   42.9    47    0.1    95      1.1   909.6    0.00       0    52.4
  43   23:20   41.9    50    0.0    95      0.9   909.6    0.00       0    52.3
  43   23:30   41.6    51    0.1    95      0.8   909.5    0.00       0    52.1
  43   23:40   41.6    51    0.1   312      1.2   909.5    0.00       0    52.0
  43   23:50   41.0    52    0.4   212      1.5   909.1    0.00       0    51.8
  44    0:00   41.1    52    0.6   218      1.8   909.2    0.00       0    51.6
  44    0:10   41.6    50    0.9   229      2.6   909.1    0.00       0    51.5
  44    0:20   42.1    48    1.2   235      3.2   909.1    0.00       0    51.4
  44    0:30   42.2    48    0.3   298      1.4   909.0    0.00       0    51.2
  44    0:40   41.5    49    0.4   215      1.5   909.1    0.00       0    51.1
  44    0:50   41.7    48    0.9   243      2.0   909.1    0.00       0    50.9
  44    1:00   41.4    49    0.2   240      1.2   909.1    0.00       0    50.7
  44    1:10   40.8    50    0.7   222      2.1   909.2    0.00       0    50.6
  44    1:20   40.9    50    1.5   230      2.5   909.0    0.00       0    50.5
  44    1:30   41.2    48    1.3   228      2.3   909.2    0.00       0    50.3
  44    1:40   41.4    46    2.2   236      3.1   909.2    0.00       0    50.2
  44    1:50   41.3    45    1.7   240      2.4   909.3    0.00       0    50.0
  44    2:00   40.9    46    2.0   227      3.6   909.1    0.00       0    49.9
  44    2:10   40.4    47    1.8   225      3.1   908.8    0.00       0    49.8
  44    2:20   41.0    46    0.9   234      3.1   908.7    0.00       0    49.7
  44    2:30   40.8    46    0.1    32      0.8   909.0    0.00       0    49.5
  44    2:40   39.7    49    0.0     0      0.0   908.7    0.00       0    49.4
  44    2:50   39.2    50    0.8   223      1.9   908.8    0.00       0    49.3
  44    3:00   39.3    50    1.0   214      2.1   908.8    0.00       0    49.2
  44    3:10   38.9    52    0.3    53      1.6   908.6    0.00       0    49.1
  44    3:20   37.3    56    0.1   112      1.0   908.4    0.00       0    49.0
  44    3:30   36.6    59    0.7   112      2.1   908.3    0.00       0    48.9
  44    3:40   36.5    57    0.0   102      0.7   908.2    0.00       0    48.8
  44    3:50   36.9    55    0.4   219      1.5   908.1    0.00       0    48.6
  44    4:00   37.4    55    1.0   278      2.3   908.1    0.00       0    48.5
  44    4:10   37.4    56    0.8   223      2.3   908.2    0.00       0    48.4
  44    4:20   36.8    57    0.0     0      0.0   908.4    0.00       0    48.3
  44    4:30   36.8    57    0.2   226      1.0   908.3    0.00       0    48.1
  44    4:40   36.3    58    0.9    28      2.0   908.4    0.00       0    48.0
  44    4:50   35.8    57    0.2   248      1.2   908.4    0.00       0    47.9
  44    5:00   36.2    56    0.7   230      1.6   908.4    0.00       0    47.8
  44    5:10   35.5    58    0.1   210      0.8   908.3    0.00       0    47.7
  44    5:20   35.5    60    0.8   219      1.8   908.5    0.00       0    47.6
  44    5:30   36.0    58    1.8   233      2.6   908.4    0.00       0    47.5
  44    5:40   36.7    56    1.4   232      2.2   908.4    0.00       0    47.3
  44    5:50   38.5    50    1.3   275      2.5   908.7    0.00       0    47.2
  44    6:00   38.9    48    1.8   254      3.1   908.7    0.00       0    47.1
  44    6:10   38.4    49    2.3   254      3.7   908.8    0.00       0    47.0
  44    6:20   39.0    47    1.2   242      2.6   908.9    0.00       0    46.9
  44    6:30   37.9    50    0.3    38      1.1   909.0    0.00       2    46.8
  44    6:40   37.7    50    1.2   263      3.2   909.0    0.00       6    46.8
  44    6:50   37.3    52    2.6   237      3.8   909.0    0.00      20    46.7
  44    7:00   38.4    50    1.5   242      3.1   909.1    0.00      52    46.5
  44    7:10   39.5    49    0.5    51      2.1   909.2    0.00     100    46.4
  44    7:20   39.2    49    0.8    25      1.9   909.5    0.00     160    46.3
  44    7:30   39.8    48    0.4   126      1.4   909.5    0.00     179    46.2
  44    7:40   42.7    44    0.3   123      1.2   909.5    0.00     204    46.2
  44    7:50   44.8    41    0.6   113      2.0   909.8    0.00     234    46.1
  44    8:00   44.7    41    1.5    44      2.5   910.8    0.00     293    46.1
  44    8:10   44.1    41    0.7    59      1.8   912.2    0.00     314    46.0
  44    8:20   46.1    38    0.1    62      0.7   913.0    0.00     350    46.0
  44    8:30   49.4    32    0.5   228      1.8   913.5    0.00     342    46.1
  44    8:40   48.4    34    1.4   237      2.7   913.7    0.00     408    46.1
  44    8:50   49.5    34    1.9   310      3.4   913.4    0.00     447    46.2
  44    9:00   49.7    35    1.9   323      3.7   913.8    0.00     487    46.3
  44    9:10   50.5    34    2.3   307      3.9   913.8    0.00     515    46.5
  44    9:20   52.0    32    1.7   357      3.1   913.8    0.00     545    46.7
  44    9:30   53.1    31    1.4   341      2.8   913.9    0.00     522    47.0
  44    9:40   53.5    30    1.7    18      4.5   913.8    0.00     528    47.3
  44    9:50   54.1    30    1.0   339      3.4   913.5    0.00     339    47.6
  44   10:00   55.4    28    1.2   257      2.3   914.2    0.00     216    47.9
  44   10:10   55.5    27    1.4     5      3.3   913.7    0.00     235    48.2
  44   10:20   56.0    27    1.4     1      3.2   913.4    0.00     185    48.6
  44   10:30   56.3    26    0.9   264      2.2   913.3    0.00     268    48.9
  44   10:40   56.5    26    0.6   240      2.4   913.2    0.00     123    49.3
  44   10:50   57.6    25    1.7   234      2.5   912.8    0.00     136    49.5
  44   11:00   59.0    22    1.4   247      2.6   912.6    0.00     194    49.7
  44   11:10   61.4    21    1.1   360      3.5   912.7    0.00     189    49.9
  44   11:20   62.6    21    2.5    16      5.8   912.2    0.00     231    50.1

Return to Indian Springs, Nevada graphs page.


Western Regional Climate Center,wrcc@dri.edu